sensor_id;sensor_type;location;lat;lon;timestamp;P1;durP1;ratioP1;P2;durP2;ratioP2
7013;SDS011;3547;50.774;12.918;2024-02-21T00:01:07;4.47;;;1.87;;
7013;SDS011;3547;50.774;12.918;2024-02-21T00:03:33;5.07;;;1.93;;
7013;SDS011;3547;50.774;12.918;2024-02-21T00:05:59;2.83;;;1.90;;
7013;SDS011;3547;50.774;12.918;2024-02-21T00:08:25;3.40;;;1.50;;
7013;SDS011;3547;50.774;12.918;2024-02-21T00:10:51;4.90;;;1.87;;
7013;SDS011;3547;50.774;12.918;2024-02-21T00:13:17;7.23;;;2.07;;
7013;SDS011;3547;50.774;12.918;2024-02-21T00:15:43;5.57;;;1.87;;
7013;SDS011;3547;50.774;12.918;2024-02-21T00:18:10;2.90;;;1.50;;
7013;SDS011;3547;50.774;12.918;2024-02-21T00:20:36;4.30;;;2.27;;
7013;SDS011;3547;50.774;12.918;2024-02-21T00:23:02;5.43;;;2.53;;
7013;SDS011;3547;50.774;12.918;2024-02-21T00:25:29;4.00;;;2.10;;
7013;SDS011;3547;50.774;12.918;2024-02-21T00:27:55;5.27;;;2.27;;
7013;SDS011;3547;50.774;12.918;2024-02-21T00:30:21;4.43;;;1.63;;
7013;SDS011;3547;50.774;12.918;2024-02-21T00:32:47;8.70;;;2.27;;
7013;SDS011;3547;50.774;12.918;2024-02-21T00:35:14;6.40;;;2.30;;
7013;SDS011;3547;50.774;12.918;2024-02-21T00:37:40;4.60;;;1.90;;
7013;SDS011;3547;50.774;12.918;2024-02-21T00:40:06;7.30;;;1.60;;
7013;SDS011;3547;50.774;12.918;2024-02-21T00:42:32;6.00;;;1.97;;
7013;SDS011;3547;50.774;12.918;2024-02-21T00:44:59;8.37;;;2.37;;
7013;SDS011;3547;50.774;12.918;2024-02-21T00:47:25;3.20;;;2.00;;
7013;SDS011;3547;50.774;12.918;2024-02-21T00:49:51;6.17;;;1.80;;
7013;SDS011;3547;50.774;12.918;2024-02-21T00:52:17;3.87;;;1.60;;
7013;SDS011;3547;50.774;12.918;2024-02-21T00:54:44;5.90;;;2.23;;
7013;SDS011;3547;50.774;12.918;2024-02-21T00:57:10;4.23;;;1.80;;
7013;SDS011;3547;50.774;12.918;2024-02-21T00:59:36;2.67;;;1.67;;
7013;SDS011;3547;50.774;12.918;2024-02-21T01:02:03;2.73;;;1.40;;
7013;SDS011;3547;50.774;12.918;2024-02-21T01:04:29;6.13;;;2.07;;
7013;SDS011;3547;50.774;12.918;2024-02-21T01:06:55;9.03;;;2.13;;
7013;SDS011;3547;50.774;12.918;2024-02-21T01:09:21;4.47;;;1.97;;
7013;SDS011;3547;50.774;12.918;2024-02-21T01:11:47;4.63;;;1.90;;
7013;SDS011;3547;50.774;12.918;2024-02-21T01:14:13;6.00;;;2.23;;
7013;SDS011;3547;50.774;12.918;2024-02-21T01:16:40;5.10;;;1.97;;
7013;SDS011;3547;50.774;12.918;2024-02-21T01:22:29;6.17;;;2.57;;
7013;SDS011;3547;50.774;12.918;2024-02-21T01:24:55;3.97;;;1.80;;
7013;SDS011;3547;50.774;12.918;2024-02-21T01:27:21;9.93;;;2.40;;
7013;SDS011;3547;50.774;12.918;2024-02-21T01:29:47;9.50;;;1.93;;
7013;SDS011;3547;50.774;12.918;2024-02-21T01:32:15;5.23;;;2.07;;
7013;SDS011;3547;50.774;12.918;2024-02-21T01:34:41;9.07;;;2.83;;
7013;SDS011;3547;50.774;12.918;2024-02-21T01:37:08;2.93;;;1.90;;
7013;SDS011;3547;50.774;12.918;2024-02-21T01:39:35;6.70;;;2.50;;
7013;SDS011;3547;50.774;12.918;2024-02-21T01:42:01;9.50;;;2.13;;
7013;SDS011;3547;50.774;12.918;2024-02-21T01:44:27;6.67;;;2.47;;
7013;SDS011;3547;50.774;12.918;2024-02-21T01:46:53;6.90;;;2.20;;
7013;SDS011;3547;50.774;12.918;2024-02-21T01:49:20;6.40;;;3.03;;
7013;SDS011;3547;50.774;12.918;2024-02-21T01:51:47;5.13;;;1.90;;
7013;SDS011;3547;50.774;12.918;2024-02-21T01:54:14;5.03;;;2.20;;
7013;SDS011;3547;50.774;12.918;2024-02-21T01:56:42;4.43;;;2.07;;
7013;SDS011;3547;50.774;12.918;2024-02-21T01:59:09;3.77;;;2.10;;
7013;SDS011;3547;50.774;12.918;2024-02-21T02:01:37;6.97;;;2.30;;
7013;SDS011;3547;50.774;12.918;2024-02-21T02:04:04;5.73;;;2.47;;
7013;SDS011;3547;50.774;12.918;2024-02-21T02:06:30;3.67;;;2.13;;
7013;SDS011;3547;50.774;12.918;2024-02-21T02:08:57;7.50;;;2.37;;
7013;SDS011;3547;50.774;12.918;2024-02-21T02:11:23;7.37;;;2.30;;
7013;SDS011;3547;50.774;12.918;2024-02-21T02:13:49;9.00;;;2.33;;
7013;SDS011;3547;50.774;12.918;2024-02-21T02:16:15;6.10;;;2.40;;
7013;SDS011;3547;50.774;12.918;2024-02-21T02:18:41;4.27;;;1.97;;
7013;SDS011;3547;50.774;12.918;2024-02-21T02:21:10;13.30;;;3.10;;
7013;SDS011;3547;50.774;12.918;2024-02-21T02:27:10;7.77;;;2.40;;
7013;SDS011;3547;50.774;12.918;2024-02-21T02:29:36;7.37;;;2.50;;
7013;SDS011;3547;50.774;12.918;2024-02-21T02:32:03;5.97;;;2.17;;
7013;SDS011;3547;50.774;12.918;2024-02-21T02:34:29;7.47;;;2.93;;
7013;SDS011;3547;50.774;12.918;2024-02-21T02:36:56;8.03;;;2.70;;
7013;SDS011;3547;50.774;12.918;2024-02-21T02:39:22;4.53;;;2.10;;
7013;SDS011;3547;50.774;12.918;2024-02-21T02:41:48;2.97;;;2.13;;
7013;SDS011;3547;50.774;12.918;2024-02-21T02:44:14;5.00;;;2.17;;
7013;SDS011;3547;50.774;12.918;2024-02-21T02:46:41;6.50;;;2.37;;
7013;SDS011;3547;50.774;12.918;2024-02-21T02:49:07;5.87;;;2.33;;
7013;SDS011;3547;50.774;12.918;2024-02-21T02:51:34;5.77;;;2.47;;
7013;SDS011;3547;50.774;12.918;2024-02-21T02:54:00;4.90;;;2.40;;
7013;SDS011;3547;50.774;12.918;2024-02-21T02:56:26;6.37;;;2.30;;
7013;SDS011;3547;50.774;12.918;2024-02-21T02:58:52;4.57;;;1.83;;
7013;SDS011;3547;50.774;12.918;2024-02-21T03:01:18;4.07;;;2.30;;
7013;SDS011;3547;50.774;12.918;2024-02-21T03:03:45;7.73;;;2.80;;
7013;SDS011;3547;50.774;12.918;2024-02-21T03:06:12;7.80;;;2.17;;
7013;SDS011;3547;50.774;12.918;2024-02-21T03:08:39;7.57;;;2.47;;
7013;SDS011;3547;50.774;12.918;2024-02-21T03:11:05;6.80;;;3.03;;
7013;SDS011;3547;50.774;12.918;2024-02-21T03:13:32;5.97;;;2.80;;
7013;SDS011;3547;50.774;12.918;2024-02-21T03:15:58;5.50;;;2.23;;
7013;SDS011;3547;50.774;12.918;2024-02-21T03:18:24;3.57;;;1.87;;
7013;SDS011;3547;50.774;12.918;2024-02-21T03:20:50;6.33;;;2.43;;
7013;SDS011;3547;50.774;12.918;2024-02-21T03:23:16;6.40;;;2.20;;
7013;SDS011;3547;50.774;12.918;2024-02-21T03:25:42;6.93;;;2.73;;
7013;SDS011;3547;50.774;12.918;2024-02-21T03:28:08;2.47;;;1.90;;
7013;SDS011;3547;50.774;12.918;2024-02-21T03:30:34;5.47;;;2.40;;
7013;SDS011;3547;50.774;12.918;2024-02-21T03:33:01;2.30;;;1.70;;
7013;SDS011;3547;50.774;12.918;2024-02-21T03:35:28;4.20;;;1.70;;
7013;SDS011;3547;50.774;12.918;2024-02-21T03:37:54;4.10;;;2.50;;
7013;SDS011;3547;50.774;12.918;2024-02-21T03:40:20;5.43;;;2.47;;
7013;SDS011;3547;50.774;12.918;2024-02-21T03:42:46;10.30;;;2.67;;
7013;SDS011;3547;50.774;12.918;2024-02-21T03:45:12;2.93;;;2.40;;
7013;SDS011;3547;50.774;12.918;2024-02-21T03:47:38;3.50;;;2.10;;
7013;SDS011;3547;50.774;12.918;2024-02-21T03:50:05;5.97;;;2.03;;
7013;SDS011;3547;50.774;12.918;2024-02-21T03:52:32;5.23;;;2.70;;
7013;SDS011;3547;50.774;12.918;2024-02-21T03:54:58;4.57;;;2.57;;
7013;SDS011;3547;50.774;12.918;2024-02-21T03:57:24;13.90;;;2.87;;
7013;SDS011;3547;50.774;12.918;2024-02-21T03:59:51;5.77;;;2.27;;
7013;SDS011;3547;50.774;12.918;2024-02-21T04:02:17;4.93;;;2.33;;
7013;SDS011;3547;50.774;12.918;2024-02-21T04:04:44;6.40;;;2.43;;
7013;SDS011;3547;50.774;12.918;2024-02-21T04:07:12;7.67;;;2.27;;
7013;SDS011;3547;50.774;12.918;2024-02-21T04:09:39;5.63;;;2.53;;
7013;SDS011;3547;50.774;12.918;2024-02-21T04:12:08;3.63;;;2.43;;
7013;SDS011;3547;50.774;12.918;2024-02-21T04:14:35;7.13;;;2.90;;
7013;SDS011;3547;50.774;12.918;2024-02-21T04:17:01;10.13;;;2.87;;
7013;SDS011;3547;50.774;12.918;2024-02-21T04:19:27;7.83;;;2.53;;
7013;SDS011;3547;50.774;12.918;2024-02-21T04:21:53;4.77;;;2.20;;
7013;SDS011;3547;50.774;12.918;2024-02-21T04:24:19;4.60;;;2.30;;
7013;SDS011;3547;50.774;12.918;2024-02-21T04:26:46;3.63;;;2.27;;
7013;SDS011;3547;50.774;12.918;2024-02-21T04:29:12;5.23;;;2.40;;
7013;SDS011;3547;50.774;12.918;2024-02-21T04:31:38;6.40;;;2.53;;
7013;SDS011;3547;50.774;12.918;2024-02-21T04:34:05;7.00;;;2.70;;
7013;SDS011;3547;50.774;12.918;2024-02-21T04:36:31;5.73;;;2.40;;
7013;SDS011;3547;50.774;12.918;2024-02-21T04:38:58;4.50;;;2.43;;
7013;SDS011;3547;50.774;12.918;2024-02-21T04:41:24;5.47;;;2.47;;
7013;SDS011;3547;50.774;12.918;2024-02-21T04:43:50;2.57;;;2.33;;
7013;SDS011;3547;50.774;12.918;2024-02-21T04:46:16;4.03;;;2.53;;
7013;SDS011;3547;50.774;12.918;2024-02-21T04:48:42;7.93;;;2.53;;
7013;SDS011;3547;50.774;12.918;2024-02-21T04:51:09;6.57;;;2.23;;
7013;SDS011;3547;50.774;12.918;2024-02-21T04:53:35;5.97;;;2.73;;
7013;SDS011;3547;50.774;12.918;2024-02-21T04:56:01;6.17;;;3.03;;
7013;SDS011;3547;50.774;12.918;2024-02-21T04:58:27;5.70;;;2.50;;
7013;SDS011;3547;50.774;12.918;2024-02-21T05:00:53;5.57;;;2.37;;
7013;SDS011;3547;50.774;12.918;2024-02-21T05:03:20;6.83;;;2.60;;
7013;SDS011;3547;50.774;12.918;2024-02-21T05:05:47;2.20;;;1.60;;
7013;SDS011;3547;50.774;12.918;2024-02-21T05:08:13;4.17;;;1.77;;
7013;SDS011;3547;50.774;12.918;2024-02-21T05:10:39;5.70;;;2.63;;
7013;SDS011;3547;50.774;12.918;2024-02-21T05:13:05;5.97;;;1.80;;
7013;SDS011;3547;50.774;12.918;2024-02-21T05:15:31;5.70;;;2.23;;
7013;SDS011;3547;50.774;12.918;2024-02-21T05:17:57;3.77;;;2.53;;
7013;SDS011;3547;50.774;12.918;2024-02-21T05:20:23;7.33;;;3.47;;
7013;SDS011;3547;50.774;12.918;2024-02-21T05:22:49;4.50;;;2.30;;
7013;SDS011;3547;50.774;12.918;2024-02-21T05:25:16;4.40;;;2.13;;
7013;SDS011;3547;50.774;12.918;2024-02-21T05:27:42;4.70;;;2.20;;
7013;SDS011;3547;50.774;12.918;2024-02-21T05:30:08;7.07;;;2.70;;
7013;SDS011;3547;50.774;12.918;2024-02-21T05:32:35;10.07;;;3.10;;
7013;SDS011;3547;50.774;12.918;2024-02-21T05:35:01;5.57;;;2.60;;
7013;SDS011;3547;50.774;12.918;2024-02-21T05:37:27;5.33;;;2.33;;
7013;SDS011;3547;50.774;12.918;2024-02-21T05:39:54;6.43;;;2.73;;
7013;SDS011;3547;50.774;12.918;2024-02-21T05:42:21;5.03;;;2.53;;
7013;SDS011;3547;50.774;12.918;2024-02-21T05:44:49;5.80;;;2.30;;
7013;SDS011;3547;50.774;12.918;2024-02-21T05:47:16;4.03;;;2.20;;
7013;SDS011;3547;50.774;12.918;2024-02-21T05:49:42;6.33;;;2.30;;
7013;SDS011;3547;50.774;12.918;2024-02-21T05:52:08;2.77;;;2.30;;
7013;SDS011;3547;50.774;12.918;2024-02-21T05:54:37;7.93;;;2.20;;
7013;SDS011;3547;50.774;12.918;2024-02-21T05:57:04;5.17;;;2.63;;
7013;SDS011;3547;50.774;12.918;2024-02-21T05:59:31;7.17;;;2.60;;
7013;SDS011;3547;50.774;12.918;2024-02-21T06:02:00;4.37;;;2.10;;
7013;SDS011;3547;50.774;12.918;2024-02-21T06:04:28;4.47;;;2.17;;
7013;SDS011;3547;50.774;12.918;2024-02-21T06:06:54;6.50;;;2.10;;
7013;SDS011;3547;50.774;12.918;2024-02-21T06:09:21;11.93;;;3.03;;
7013;SDS011;3547;50.774;12.918;2024-02-21T06:11:47;9.27;;;2.33;;
7013;SDS011;3547;50.774;12.918;2024-02-21T06:14:14;10.37;;;3.20;;
7013;SDS011;3547;50.774;12.918;2024-02-21T06:16:41;5.90;;;2.23;;
7013;SDS011;3547;50.774;12.918;2024-02-21T06:19:08;7.50;;;2.40;;
7013;SDS011;3547;50.774;12.918;2024-02-21T06:21:35;7.37;;;2.47;;
7013;SDS011;3547;50.774;12.918;2024-02-21T06:24:02;6.20;;;2.77;;
7013;SDS011;3547;50.774;12.918;2024-02-21T06:26:29;2.83;;;2.20;;
7013;SDS011;3547;50.774;12.918;2024-02-21T06:28:55;4.23;;;2.90;;
7013;SDS011;3547;50.774;12.918;2024-02-21T06:31:21;6.93;;;3.30;;
7013;SDS011;3547;50.774;12.918;2024-02-21T06:33:50;5.03;;;2.30;;
7013;SDS011;3547;50.774;12.918;2024-02-21T06:36:18;3.60;;;2.80;;
7013;SDS011;3547;50.774;12.918;2024-02-21T06:38:44;5.40;;;2.77;;
7013;SDS011;3547;50.774;12.918;2024-02-21T06:41:15;6.17;;;2.30;;
7013;SDS011;3547;50.774;12.918;2024-02-21T06:43:44;4.03;;;2.10;;
7013;SDS011;3547;50.774;12.918;2024-02-21T06:46:26;3.70;;;2.30;;
7013;SDS011;3547;50.774;12.918;2024-02-21T06:48:54;6.13;;;3.03;;
7013;SDS011;3547;50.774;12.918;2024-02-21T06:51:23;5.33;;;2.13;;
7013;SDS011;3547;50.774;12.918;2024-02-21T06:53:53;3.13;;;2.23;;
7013;SDS011;3547;50.774;12.918;2024-02-21T06:56:20;7.77;;;2.67;;
7013;SDS011;3547;50.774;12.918;2024-02-21T06:58:52;10.10;;;2.80;;
7013;SDS011;3547;50.774;12.918;2024-02-21T07:01:18;4.03;;;2.57;;
7013;SDS011;3547;50.774;12.918;2024-02-21T07:03:44;3.23;;;2.00;;
7013;SDS011;3547;50.774;12.918;2024-02-21T07:06:10;5.80;;;2.50;;
7013;SDS011;3547;50.774;12.918;2024-02-21T07:08:36;2.37;;;1.93;;
7013;SDS011;3547;50.774;12.918;2024-02-21T07:11:04;6.30;;;2.27;;
7013;SDS011;3547;50.774;12.918;2024-02-21T07:13:32;4.50;;;2.40;;
7013;SDS011;3547;50.774;12.918;2024-02-21T07:15:58;6.17;;;2.83;;
7013;SDS011;3547;50.774;12.918;2024-02-21T07:18:24;5.30;;;2.37;;
7013;SDS011;3547;50.774;12.918;2024-02-21T07:20:51;4.20;;;2.10;;
7013;SDS011;3547;50.774;12.918;2024-02-21T07:23:18;2.33;;;2.10;;
7013;SDS011;3547;50.774;12.918;2024-02-21T07:25:44;5.87;;;2.80;;
7013;SDS011;3547;50.774;12.918;2024-02-21T07:28:11;5.03;;;2.20;;
7013;SDS011;3547;50.774;12.918;2024-02-21T07:30:39;6.70;;;2.43;;
7013;SDS011;3547;50.774;12.918;2024-02-21T07:33:05;3.93;;;2.20;;
7013;SDS011;3547;50.774;12.918;2024-02-21T07:35:32;7.03;;;2.60;;
7013;SDS011;3547;50.774;12.918;2024-02-21T07:37:59;4.50;;;2.60;;
7013;SDS011;3547;50.774;12.918;2024-02-21T07:40:25;6.70;;;2.53;;
7013;SDS011;3547;50.774;12.918;2024-02-21T07:42:51;5.43;;;2.60;;
7013;SDS011;3547;50.774;12.918;2024-02-21T07:45:17;5.13;;;2.60;;
7013;SDS011;3547;50.774;12.918;2024-02-21T07:47:44;5.53;;;2.50;;
7013;SDS011;3547;50.774;12.918;2024-02-21T07:50:10;6.67;;;2.90;;
7013;SDS011;3547;50.774;12.918;2024-02-21T07:52:36;2.93;;;2.37;;
7013;SDS011;3547;50.774;12.918;2024-02-21T07:55:02;4.50;;;2.90;;
7013;SDS011;3547;50.774;12.918;2024-02-21T07:57:28;4.73;;;2.60;;
7013;SDS011;3547;50.774;12.918;2024-02-21T07:59:55;4.83;;;3.23;;
7013;SDS011;3547;50.774;12.918;2024-02-21T08:02:21;5.27;;;3.03;;
7013;SDS011;3547;50.774;12.918;2024-02-21T08:04:47;6.13;;;3.00;;
7013;SDS011;3547;50.774;12.918;2024-02-21T08:07:13;6.20;;;2.73;;
7013;SDS011;3547;50.774;12.918;2024-02-21T08:09:39;7.13;;;2.97;;
7013;SDS011;3547;50.774;12.918;2024-02-21T08:12:06;7.47;;;3.20;;
7013;SDS011;3547;50.774;12.918;2024-02-21T08:14:32;5.90;;;2.70;;
7013;SDS011;3547;50.774;12.918;2024-02-21T08:16:58;8.47;;;2.80;;
7013;SDS011;3547;50.774;12.918;2024-02-21T08:19:25;4.13;;;2.43;;
7013;SDS011;3547;50.774;12.918;2024-02-21T08:21:51;4.47;;;2.73;;
7013;SDS011;3547;50.774;12.918;2024-02-21T08:24:17;4.33;;;2.60;;
7013;SDS011;3547;50.774;12.918;2024-02-21T08:26:43;5.03;;;2.80;;
7013;SDS011;3547;50.774;12.918;2024-02-21T08:29:10;3.93;;;2.27;;
7013;SDS011;3547;50.774;12.918;2024-02-21T08:31:37;5.37;;;2.50;;
7013;SDS011;3547;50.774;12.918;2024-02-21T08:34:03;6.00;;;2.30;;
7013;SDS011;3547;50.774;12.918;2024-02-21T08:38:56;5.90;;;2.37;;
7013;SDS011;3547;50.774;12.918;2024-02-21T08:41:23;5.07;;;2.67;;
7013;SDS011;3547;50.774;12.918;2024-02-21T08:43:50;5.37;;;2.40;;
7013;SDS011;3547;50.774;12.918;2024-02-21T08:46:17;7.90;;;2.60;;
7013;SDS011;3547;50.774;12.918;2024-02-21T08:48:44;4.83;;;2.70;;
7013;SDS011;3547;50.774;12.918;2024-02-21T08:51:13;8.13;;;2.67;;
7013;SDS011;3547;50.774;12.918;2024-02-21T08:53:39;4.37;;;2.27;;
7013;SDS011;3547;50.774;12.918;2024-02-21T08:56:06;5.57;;;2.13;;
7013;SDS011;3547;50.774;12.918;2024-02-21T08:58:41;4.13;;;2.33;;
7013;SDS011;3547;50.774;12.918;2024-02-21T09:01:08;4.87;;;2.53;;
7013;SDS011;3547;50.774;12.918;2024-02-21T09:03:40;4.10;;;2.33;;
7013;SDS011;3547;50.774;12.918;2024-02-21T09:06:10;6.03;;;2.57;;
7013;SDS011;3547;50.774;12.918;2024-02-21T09:08:38;4.47;;;2.13;;
7013;SDS011;3547;50.774;12.918;2024-02-21T09:11:05;9.13;;;3.00;;
7013;SDS011;3547;50.774;12.918;2024-02-21T09:13:32;7.33;;;2.10;;
7013;SDS011;3547;50.774;12.918;2024-02-21T09:15:59;6.97;;;2.37;;
7013;SDS011;3547;50.774;12.918;2024-02-21T09:18:25;8.23;;;2.37;;
7013;SDS011;3547;50.774;12.918;2024-02-21T09:20:51;3.53;;;2.20;;
7013;SDS011;3547;50.774;12.918;2024-02-21T09:23:19;4.63;;;2.20;;
7013;SDS011;3547;50.774;12.918;2024-02-21T09:25:45;2.90;;;2.60;;
7013;SDS011;3547;50.774;12.918;2024-02-21T09:28:14;3.70;;;2.30;;
7013;SDS011;3547;50.774;12.918;2024-02-21T09:30:42;3.30;;;2.60;;
7013;SDS011;3547;50.774;12.918;2024-02-21T09:33:09;3.63;;;2.43;;
7013;SDS011;3547;50.774;12.918;2024-02-21T09:35:35;6.27;;;3.30;;
7013;SDS011;3547;50.774;12.918;2024-02-21T09:38:02;5.83;;;2.93;;
7013;SDS011;3547;50.774;12.918;2024-02-21T09:40:28;6.97;;;2.77;;
7013;SDS011;3547;50.774;12.918;2024-02-21T09:42:59;4.73;;;2.27;;
7013;SDS011;3547;50.774;12.918;2024-02-21T09:45:30;5.93;;;2.77;;
7013;SDS011;3547;50.774;12.918;2024-02-21T09:50:49;2.77;;;2.17;;
7013;SDS011;3547;50.774;12.918;2024-02-21T09:53:17;3.10;;;2.00;;
7013;SDS011;3547;50.774;12.918;2024-02-21T09:55:45;6.10;;;2.40;;
7013;SDS011;3547;50.774;12.918;2024-02-21T09:58:12;6.13;;;3.43;;
7013;SDS011;3547;50.774;12.918;2024-02-21T10:00:38;5.30;;;2.40;;
7013;SDS011;3547;50.774;12.918;2024-02-21T10:03:06;2.83;;;2.03;;
7013;SDS011;3547;50.774;12.918;2024-02-21T10:05:35;4.83;;;2.40;;
7013;SDS011;3547;50.774;12.918;2024-02-21T10:08:02;3.60;;;2.00;;
7013;SDS011;3547;50.774;12.918;2024-02-21T10:10:29;2.77;;;2.00;;
7013;SDS011;3547;50.774;12.918;2024-02-21T10:13:06;5.23;;;2.00;;
7013;SDS011;3547;50.774;12.918;2024-02-21T10:15:33;4.97;;;2.20;;
7013;SDS011;3547;50.774;12.918;2024-02-21T10:18:00;2.70;;;2.23;;
7013;SDS011;3547;50.774;12.918;2024-02-21T10:20:29;5.13;;;2.57;;
7013;SDS011;3547;50.774;12.918;2024-02-21T10:23:01;4.47;;;2.40;;
7013;SDS011;3547;50.774;12.918;2024-02-21T10:25:34;4.20;;;2.33;;
7013;SDS011;3547;50.774;12.918;2024-02-21T10:28:03;7.63;;;2.07;;
7013;SDS011;3547;50.774;12.918;2024-02-21T10:30:30;5.87;;;1.97;;
7013;SDS011;3547;50.774;12.918;2024-02-21T10:32:56;4.67;;;2.20;;
7013;SDS011;3547;50.774;12.918;2024-02-21T10:35:27;4.17;;;2.80;;
7013;SDS011;3547;50.774;12.918;2024-02-21T10:37:58;7.03;;;2.13;;
7013;SDS011;3547;50.774;12.918;2024-02-21T10:40:25;6.00;;;2.30;;
7013;SDS011;3547;50.774;12.918;2024-02-21T10:42:59;4.93;;;2.23;;
7013;SDS011;3547;50.774;12.918;2024-02-21T10:45:30;3.53;;;1.97;;
7013;SDS011;3547;50.774;12.918;2024-02-21T10:48:01;3.93;;;1.97;;
7013;SDS011;3547;50.774;12.918;2024-02-21T10:51:01;4.67;;;2.10;;
7013;SDS011;3547;50.774;12.918;2024-02-21T10:53:59;6.50;;;1.90;;
7013;SDS011;3547;50.774;12.918;2024-02-21T10:56:48;2.67;;;2.00;;
7013;SDS011;3547;50.774;12.918;2024-02-21T10:59:16;3.27;;;1.73;;
7013;SDS011;3547;50.774;12.918;2024-02-21T11:01:43;5.27;;;1.70;;
7013;SDS011;3547;50.774;12.918;2024-02-21T11:04:10;2.93;;;2.07;;
7013;SDS011;3547;50.774;12.918;2024-02-21T11:06:39;7.17;;;2.20;;
7013;SDS011;3547;50.774;12.918;2024-02-21T11:09:08;6.43;;;2.30;;
7013;SDS011;3547;50.774;12.918;2024-02-21T11:11:35;4.33;;;1.87;;
7013;SDS011;3547;50.774;12.918;2024-02-21T11:14:10;4.73;;;1.70;;
7013;SDS011;3547;50.774;12.918;2024-02-21T11:16:43;6.40;;;2.03;;
7013;SDS011;3547;50.774;12.918;2024-02-21T11:19:10;3.40;;;1.63;;
7013;SDS011;3547;50.774;12.918;2024-02-21T11:21:48;3.30;;;2.13;;
7013;SDS011;3547;50.774;12.918;2024-02-21T11:27:11;1.80;;;1.67;;
7013;SDS011;3547;50.774;12.918;2024-02-21T11:29:44;5.50;;;2.00;;
7013;SDS011;3547;50.774;12.918;2024-02-21T11:32:14;2.87;;;1.60;;
7013;SDS011;3547;50.774;12.918;2024-02-21T11:34:41;5.30;;;1.80;;
7013;SDS011;3547;50.774;12.918;2024-02-21T11:37:18;4.60;;;2.37;;
7013;SDS011;3547;50.774;12.918;2024-02-21T11:39:44;3.17;;;1.67;;
7013;SDS011;3547;50.774;12.918;2024-02-21T11:42:10;4.67;;;1.90;;
7013;SDS011;3547;50.774;12.918;2024-02-21T11:44:38;3.93;;;2.00;;
7013;SDS011;3547;50.774;12.918;2024-02-21T11:47:05;2.90;;;2.10;;
7013;SDS011;3547;50.774;12.918;2024-02-21T11:49:36;2.40;;;1.43;;
7013;SDS011;3547;50.774;12.918;2024-02-21T11:52:08;2.07;;;1.60;;
7013;SDS011;3547;50.774;12.918;2024-02-21T11:54:34;3.83;;;1.47;;
7013;SDS011;3547;50.774;12.918;2024-02-21T11:57:01;2.80;;;1.70;;
7013;SDS011;3547;50.774;12.918;2024-02-21T11:59:29;5.00;;;2.00;;
7013;SDS011;3547;50.774;12.918;2024-02-21T12:01:57;5.07;;;2.00;;
7013;SDS011;3547;50.774;12.918;2024-02-21T12:04:24;5.13;;;2.10;;
7013;SDS011;3547;50.774;12.918;2024-02-21T12:06:52;2.50;;;1.23;;
7013;SDS011;3547;50.774;12.918;2024-02-21T12:09:19;1.77;;;1.27;;
7013;SDS011;3547;50.774;12.918;2024-02-21T12:11:56;3.10;;;1.43;;
7013;SDS011;3547;50.774;12.918;2024-02-21T12:14:45;4.77;;;1.40;;
7013;SDS011;3547;50.774;12.918;2024-02-21T12:17:12;4.03;;;1.53;;
7013;SDS011;3547;50.774;12.918;2024-02-21T12:19:38;2.47;;;1.50;;
7013;SDS011;3547;50.774;12.918;2024-02-21T12:22:04;4.93;;;1.70;;
7013;SDS011;3547;50.774;12.918;2024-02-21T12:24:31;5.87;;;2.00;;
7013;SDS011;3547;50.774;12.918;2024-02-21T12:26:57;3.90;;;1.37;;
7013;SDS011;3547;50.774;12.918;2024-02-21T12:29:24;4.07;;;1.40;;
7013;SDS011;3547;50.774;12.918;2024-02-21T12:31:50;2.83;;;1.30;;
7013;SDS011;3547;50.774;12.918;2024-02-21T12:34:20;5.80;;;1.60;;
7013;SDS011;3547;50.774;12.918;2024-02-21T12:36:47;2.33;;;1.40;;
7013;SDS011;3547;50.774;12.918;2024-02-21T12:39:13;2.67;;;1.43;;
7013;SDS011;3547;50.774;12.918;2024-02-21T12:41:40;3.40;;;1.40;;
7013;SDS011;3547;50.774;12.918;2024-02-21T12:44:09;2.53;;;1.73;;
7013;SDS011;3547;50.774;12.918;2024-02-21T12:46:45;3.13;;;1.20;;
7013;SDS011;3547;50.774;12.918;2024-02-21T12:49:11;2.80;;;1.30;;
7013;SDS011;3547;50.774;12.918;2024-02-21T12:51:37;4.70;;;1.60;;
7013;SDS011;3547;50.774;12.918;2024-02-21T12:54:05;7.83;;;1.53;;
7013;SDS011;3547;50.774;12.918;2024-02-21T12:56:31;2.10;;;1.57;;
7013;SDS011;3547;50.774;12.918;2024-02-21T12:58:57;1.80;;;1.27;;
7013;SDS011;3547;50.774;12.918;2024-02-21T13:01:23;1.60;;;1.30;;
7013;SDS011;3547;50.774;12.918;2024-02-21T13:07:12;4.70;;;1.60;;
7013;SDS011;3547;50.774;12.918;2024-02-21T13:09:38;1.47;;;1.27;;
7013;SDS011;3547;50.774;12.918;2024-02-21T13:12:06;3.83;;;1.63;;
7013;SDS011;3547;50.774;12.918;2024-02-21T13:14:32;1.77;;;1.10;;
7013;SDS011;3547;50.774;12.918;2024-02-21T13:17:00;5.20;;;1.80;;
7013;SDS011;3547;50.774;12.918;2024-02-21T13:19:26;1.60;;;1.43;;
7013;SDS011;3547;50.774;12.918;2024-02-21T13:21:52;5.97;;;1.40;;
7013;SDS011;3547;50.774;12.918;2024-02-21T13:24:19;2.50;;;1.33;;
7013;SDS011;3547;50.774;12.918;2024-02-21T13:26:45;4.30;;;1.47;;
7013;SDS011;3547;50.774;12.918;2024-02-21T13:29:11;3.73;;;1.40;;
7013;SDS011;3547;50.774;12.918;2024-02-21T13:31:37;3.43;;;1.27;;
7013;SDS011;3547;50.774;12.918;2024-02-21T13:34:04;2.50;;;1.13;;
7013;SDS011;3547;50.774;12.918;2024-02-21T13:36:30;3.70;;;1.40;;
7013;SDS011;3547;50.774;12.918;2024-02-21T13:38:56;2.00;;;1.30;;
7013;SDS011;3547;50.774;12.918;2024-02-21T13:41:22;2.43;;;1.50;;
7013;SDS011;3547;50.774;12.918;2024-02-21T13:43:49;2.47;;;1.47;;
7013;SDS011;3547;50.774;12.918;2024-02-21T13:46:15;1.27;;;1.17;;
7013;SDS011;3547;50.774;12.918;2024-02-21T13:48:41;4.17;;;1.27;;
7013;SDS011;3547;50.774;12.918;2024-02-21T13:51:07;4.77;;;1.27;;
7013;SDS011;3547;50.774;12.918;2024-02-21T13:53:33;2.30;;;1.17;;
7013;SDS011;3547;50.774;12.918;2024-02-21T13:56:00;3.00;;;1.07;;
7013;SDS011;3547;50.774;12.918;2024-02-21T13:58:26;3.90;;;1.07;;
7013;SDS011;3547;50.774;12.918;2024-02-21T14:00:52;2.47;;;1.10;;
7013;SDS011;3547;50.774;12.918;2024-02-21T14:03:19;3.37;;;1.37;;
7013;SDS011;3547;50.774;12.918;2024-02-21T14:05:45;1.87;;;1.17;;
7013;SDS011;3547;50.774;12.918;2024-02-21T14:08:14;2.13;;;1.03;;
7013;SDS011;3547;50.774;12.918;2024-02-21T14:10:40;1.53;;;1.27;;
7013;SDS011;3547;50.774;12.918;2024-02-21T14:13:06;1.93;;;1.23;;
7013;SDS011;3547;50.774;12.918;2024-02-21T14:15:32;4.83;;;0.87;;
7013;SDS011;3547;50.774;12.918;2024-02-21T14:17:58;2.30;;;1.23;;
7013;SDS011;3547;50.774;12.918;2024-02-21T14:20:25;1.83;;;1.40;;
7013;SDS011;3547;50.774;12.918;2024-02-21T14:22:51;3.93;;;1.20;;
7013;SDS011;3547;50.774;12.918;2024-02-21T14:25:20;1.80;;;1.10;;
7013;SDS011;3547;50.774;12.918;2024-02-21T14:27:50;1.67;;;0.93;;
7013;SDS011;3547;50.774;12.918;2024-02-21T14:30:16;1.10;;;1.00;;
7013;SDS011;3547;50.774;12.918;2024-02-21T14:32:43;1.20;;;1.10;;
7013;SDS011;3547;50.774;12.918;2024-02-21T14:35:10;5.73;;;1.50;;
7013;SDS011;3547;50.774;12.918;2024-02-21T14:37:36;2.93;;;1.40;;
7013;SDS011;3547;50.774;12.918;2024-02-21T14:40:02;4.20;;;1.40;;
7013;SDS011;3547;50.774;12.918;2024-02-21T14:42:29;1.40;;;1.20;;
7013;SDS011;3547;50.774;12.918;2024-02-21T14:44:55;2.53;;;1.27;;
7013;SDS011;3547;50.774;12.918;2024-02-21T14:47:30;3.30;;;1.17;;
7013;SDS011;3547;50.774;12.918;2024-02-21T14:50:01;3.93;;;1.40;;
7013;SDS011;3547;50.774;12.918;2024-02-21T14:52:28;1.20;;;1.10;;
7013;SDS011;3547;50.774;12.918;2024-02-21T14:54:54;1.70;;;1.20;;
7013;SDS011;3547;50.774;12.918;2024-02-21T14:57:21;3.40;;;1.13;;
7013;SDS011;3547;50.774;12.918;2024-02-21T14:59:47;2.97;;;1.27;;
7013;SDS011;3547;50.774;12.918;2024-02-21T15:02:15;0.90;;;0.90;;
7013;SDS011;3547;50.774;12.918;2024-02-21T15:04:41;4.40;;;1.37;;
7013;SDS011;3547;50.774;12.918;2024-02-21T15:07:08;3.37;;;1.20;;
7013;SDS011;3547;50.774;12.918;2024-02-21T15:09:34;3.47;;;1.53;;
7013;SDS011;3547;50.774;12.918;2024-02-21T15:12:01;2.47;;;1.40;;
7013;SDS011;3547;50.774;12.918;2024-02-21T15:14:27;1.27;;;1.00;;
7013;SDS011;3547;50.774;12.918;2024-02-21T15:16:53;1.87;;;1.10;;
7013;SDS011;3547;50.774;12.918;2024-02-21T15:19:19;2.00;;;0.70;;